sensor_id;sensor_type;location;lat;lon;timestamp;P1;durP1;ratioP1;P2;durP2;ratioP2
54263;SDS011;40178;53.042;6.406;2023-01-30T00:01:27;26.92;;;11.40;;
54263;SDS011;40178;53.042;6.406;2023-01-30T00:03:55;20.55;;;10.10;;
54263;SDS011;40178;53.042;6.406;2023-01-30T00:06:21;20.92;;;9.55;;
54263;SDS011;40178;53.042;6.406;2023-01-30T00:08:47;23.95;;;10.60;;
54263;SDS011;40178;53.042;6.406;2023-01-30T00:11:14;24.02;;;10.25;;
54263;SDS011;40178;53.042;6.406;2023-01-30T00:13:41;17.30;;;8.93;;
54263;SDS011;40178;53.042;6.406;2023-01-30T00:16:07;22.15;;;9.35;;
54263;SDS011;40178;53.042;6.406;2023-01-30T00:18:34;18.23;;;8.93;;
54263;SDS011;40178;53.042;6.406;2023-01-30T00:21:01;21.50;;;9.90;;
54263;SDS011;40178;53.042;6.406;2023-01-30T00:23:29;21.65;;;9.77;;
54263;SDS011;40178;53.042;6.406;2023-01-30T00:25:57;17.52;;;9.25;;
54263;SDS011;40178;53.042;6.406;2023-01-30T00:28:23;19.98;;;9.23;;
54263;SDS011;40178;53.042;6.406;2023-01-30T00:30:49;17.48;;;10.02;;
54263;SDS011;40178;53.042;6.406;2023-01-30T00:33:17;22.60;;;9.57;;
54263;SDS011;40178;53.042;6.406;2023-01-30T00:35:47;18.58;;;8.70;;
54263;SDS011;40178;53.042;6.406;2023-01-30T00:38:14;20.52;;;9.15;;
54263;SDS011;40178;53.042;6.406;2023-01-30T00:40:40;17.60;;;8.43;;
54263;SDS011;40178;53.042;6.406;2023-01-30T00:43:06;17.67;;;7.88;;
54263;SDS011;40178;53.042;6.406;2023-01-30T00:45:51;20.08;;;8.48;;
54263;SDS011;40178;53.042;6.406;2023-01-30T00:48:37;20.75;;;8.02;;
54263;SDS011;40178;53.042;6.406;2023-01-30T00:51:03;15.95;;;7.65;;
54263;SDS011;40178;53.042;6.406;2023-01-30T00:53:29;18.20;;;7.70;;
54263;SDS011;40178;53.042;6.406;2023-01-30T00:55:54;18.02;;;8.57;;
54263;SDS011;40178;53.042;6.406;2023-01-30T00:58:21;16.70;;;8.23;;
54263;SDS011;40178;53.042;6.406;2023-01-30T01:00:48;18.50;;;7.57;;
54263;SDS011;40178;53.042;6.406;2023-01-30T01:03:14;16.98;;;6.82;;
54263;SDS011;40178;53.042;6.406;2023-01-30T01:05:41;16.73;;;6.90;;
54263;SDS011;40178;53.042;6.406;2023-01-30T01:08:08;19.80;;;7.93;;
54263;SDS011;40178;53.042;6.406;2023-01-30T01:10:34;19.20;;;7.13;;
54263;SDS011;40178;53.042;6.406;2023-01-30T01:13:00;22.38;;;7.85;;
54263;SDS011;40178;53.042;6.406;2023-01-30T01:15:26;18.55;;;6.53;;
54263;SDS011;40178;53.042;6.406;2023-01-30T01:17:51;16.35;;;5.47;;
54263;SDS011;40178;53.042;6.406;2023-01-30T01:20:17;19.15;;;6.45;;
54263;SDS011;40178;53.042;6.406;2023-01-30T01:22:44;18.38;;;6.30;;
54263;SDS011;40178;53.042;6.406;2023-01-30T01:25:13;12.30;;;5.63;;
54263;SDS011;40178;53.042;6.406;2023-01-30T01:27:39;17.27;;;6.47;;
54263;SDS011;40178;53.042;6.406;2023-01-30T01:30:05;15.52;;;5.90;;
54263;SDS011;40178;53.042;6.406;2023-01-30T01:32:31;16.63;;;5.82;;
54263;SDS011;40178;53.042;6.406;2023-01-30T01:34:57;13.80;;;5.18;;
54263;SDS011;40178;53.042;6.406;2023-01-30T01:37:22;17.65;;;5.63;;
54263;SDS011;40178;53.042;6.406;2023-01-30T01:39:48;23.65;;;7.25;;
54263;SDS011;40178;53.042;6.406;2023-01-30T01:42:33;12.77;;;5.40;;
54263;SDS011;40178;53.042;6.406;2023-01-30T01:47:42;14.68;;;5.45;;
54263;SDS011;40178;53.042;6.406;2023-01-30T01:53:16;15.07;;;5.68;;
54263;SDS011;40178;53.042;6.406;2023-01-30T01:55:45;13.45;;;5.22;;
54263;SDS011;40178;53.042;6.406;2023-01-30T01:58:18;14.90;;;5.68;;
54263;SDS011;40178;53.042;6.406;2023-01-30T02:01:05;17.88;;;5.75;;
54263;SDS011;40178;53.042;6.406;2023-01-30T02:03:32;17.88;;;5.63;;
54263;SDS011;40178;53.042;6.406;2023-01-30T02:06:03;13.00;;;5.57;;
54263;SDS011;40178;53.042;6.406;2023-01-30T02:08:31;12.93;;;5.38;;
54263;SDS011;40178;53.042;6.406;2023-01-30T02:11:07;12.35;;;5.38;;
54263;SDS011;40178;53.042;6.406;2023-01-30T02:13:34;17.08;;;6.93;;
54263;SDS011;40178;53.042;6.406;2023-01-30T02:16:00;18.70;;;6.22;;
54263;SDS011;40178;53.042;6.406;2023-01-30T02:18:28;12.73;;;5.82;;
54263;SDS011;40178;53.042;6.406;2023-01-30T02:34:49;19.98;;;6.28;;
54263;SDS011;40178;53.042;6.406;2023-01-30T02:37:26;18.15;;;6.35;;
54263;SDS011;40178;53.042;6.406;2023-01-30T02:40:07;15.55;;;5.97;;
54263;SDS011;40178;53.042;6.406;2023-01-30T02:48:11;24.90;;;6.97;;
54263;SDS011;40178;53.042;6.406;2023-01-30T02:50:49;20.83;;;6.13;;
54263;SDS011;40178;53.042;6.406;2023-01-30T02:53:21;24.70;;;6.82;;
54263;SDS011;40178;53.042;6.406;2023-01-30T02:55:46;17.92;;;6.40;;
54263;SDS011;40178;53.042;6.406;2023-01-30T02:58:12;25.30;;;7.10;;
54263;SDS011;40178;53.042;6.406;2023-01-30T03:00:54;23.80;;;6.57;;
54263;SDS011;40178;53.042;6.406;2023-01-30T03:04:06;23.33;;;6.65;;
54263;SDS011;40178;53.042;6.406;2023-01-30T03:07:14;18.27;;;6.50;;
54263;SDS011;40178;53.042;6.406;2023-01-30T03:15:08;18.08;;;5.55;;
54263;SDS011;40178;53.042;6.406;2023-01-30T03:17:44;18.83;;;6.30;;
54263;SDS011;40178;53.042;6.406;2023-01-30T03:20:12;19.70;;;5.40;;
54263;SDS011;40178;53.042;6.406;2023-01-30T03:22:39;21.25;;;5.55;;
54263;SDS011;40178;53.042;6.406;2023-01-30T03:25:05;14.70;;;5.28;;
54263;SDS011;40178;53.042;6.406;2023-01-30T03:27:33;22.20;;;5.25;;
54263;SDS011;40178;53.042;6.406;2023-01-30T03:29:59;19.40;;;4.22;;
54263;SDS011;40178;53.042;6.406;2023-01-30T03:32:25;21.52;;;5.25;;
54263;SDS011;40178;53.042;6.406;2023-01-30T03:34:50;19.30;;;5.55;;
54263;SDS011;40178;53.042;6.406;2023-01-30T03:37:16;25.73;;;5.93;;
54263;SDS011;40178;53.042;6.406;2023-01-30T03:39:42;23.23;;;4.85;;
54263;SDS011;40178;53.042;6.406;2023-01-30T03:42:07;18.85;;;4.82;;
54263;SDS011;40178;53.042;6.406;2023-01-30T03:44:33;13.95;;;4.55;;
54263;SDS011;40178;53.042;6.406;2023-01-30T03:46:59;15.60;;;4.43;;
54263;SDS011;40178;53.042;6.406;2023-01-30T03:49:24;23.52;;;4.82;;
54263;SDS011;40178;53.042;6.406;2023-01-30T03:51:50;16.88;;;4.22;;
54263;SDS011;40178;53.042;6.406;2023-01-30T03:54:15;21.40;;;5.35;;
54263;SDS011;40178;53.042;6.406;2023-01-30T03:56:41;16.80;;;4.75;;
54263;SDS011;40178;53.042;6.406;2023-01-30T03:59:07;16.88;;;4.47;;
54263;SDS011;40178;53.042;6.406;2023-01-30T04:01:32;24.58;;;5.03;;
54263;SDS011;40178;53.042;6.406;2023-01-30T04:03:58;16.38;;;3.97;;
54263;SDS011;40178;53.042;6.406;2023-01-30T04:06:24;15.82;;;3.60;;
54263;SDS011;40178;53.042;6.406;2023-01-30T04:08:51;19.13;;;3.85;;
54263;SDS011;40178;53.042;6.406;2023-01-30T04:11:17;10.57;;;3.08;;
54263;SDS011;40178;53.042;6.406;2023-01-30T04:13:43;15.60;;;3.97;;
54263;SDS011;40178;53.042;6.406;2023-01-30T04:16:12;19.40;;;4.00;;
54263;SDS011;40178;53.042;6.406;2023-01-30T04:18:42;19.33;;;4.18;;
54263;SDS011;40178;53.042;6.406;2023-01-30T04:21:08;15.52;;;4.10;;
54263;SDS011;40178;53.042;6.406;2023-01-30T04:23:33;18.77;;;4.40;;
54263;SDS011;40178;53.042;6.406;2023-01-30T04:25:59;19.08;;;4.38;;
54263;SDS011;40178;53.042;6.406;2023-01-30T04:28:24;14.43;;;3.55;;
54263;SDS011;40178;53.042;6.406;2023-01-30T04:30:53;20.17;;;4.68;;
54263;SDS011;40178;53.042;6.406;2023-01-30T04:33:19;17.65;;;4.10;;
54263;SDS011;40178;53.042;6.406;2023-01-30T04:35:52;15.32;;;3.40;;
54263;SDS011;40178;53.042;6.406;2023-01-30T04:38:18;15.57;;;3.88;;
54263;SDS011;40178;53.042;6.406;2023-01-30T04:40:48;19.13;;;3.28;;
54263;SDS011;40178;53.042;6.406;2023-01-30T04:43:17;15.70;;;3.58;;
54263;SDS011;40178;53.042;6.406;2023-01-30T04:45:44;15.93;;;4.18;;
54263;SDS011;40178;53.042;6.406;2023-01-30T04:48:10;16.60;;;3.13;;
54263;SDS011;40178;53.042;6.406;2023-01-30T04:50:37;16.90;;;4.22;;
54263;SDS011;40178;53.042;6.406;2023-01-30T04:53:04;16.02;;;3.55;;
54263;SDS011;40178;53.042;6.406;2023-01-30T04:55:29;16.90;;;4.18;;
54263;SDS011;40178;53.042;6.406;2023-01-30T04:57:55;16.05;;;3.15;;
54263;SDS011;40178;53.042;6.406;2023-01-30T05:00:21;18.67;;;3.88;;
54263;SDS011;40178;53.042;6.406;2023-01-30T05:02:47;17.48;;;4.68;;
54263;SDS011;40178;53.042;6.406;2023-01-30T05:05:12;16.90;;;4.22;;
54263;SDS011;40178;53.042;6.406;2023-01-30T05:07:38;15.13;;;3.60;;
54263;SDS011;40178;53.042;6.406;2023-01-30T05:10:04;11.88;;;3.78;;
54263;SDS011;40178;53.042;6.406;2023-01-30T05:12:30;18.88;;;3.88;;
54263;SDS011;40178;53.042;6.406;2023-01-30T05:14:55;21.95;;;3.53;;
54263;SDS011;40178;53.042;6.406;2023-01-30T05:17:21;12.88;;;3.30;;
54263;SDS011;40178;53.042;6.406;2023-01-30T05:19:47;16.15;;;3.38;;
54263;SDS011;40178;53.042;6.406;2023-01-30T05:22:13;17.52;;;3.90;;
54263;SDS011;40178;53.042;6.406;2023-01-30T05:24:38;16.90;;;3.42;;
54263;SDS011;40178;53.042;6.406;2023-01-30T05:27:04;15.35;;;3.38;;
54263;SDS011;40178;53.042;6.406;2023-01-30T05:29:29;17.73;;;4.00;;
54263;SDS011;40178;53.042;6.406;2023-01-30T05:31:55;22.23;;;3.63;;
54263;SDS011;40178;53.042;6.406;2023-01-30T05:34:21;18.60;;;3.75;;
54263;SDS011;40178;53.042;6.406;2023-01-30T05:36:46;11.98;;;2.75;;
54263;SDS011;40178;53.042;6.406;2023-01-30T05:39:12;22.02;;;4.03;;
54263;SDS011;40178;53.042;6.406;2023-01-30T05:41:38;12.55;;;2.90;;
54263;SDS011;40178;53.042;6.406;2023-01-30T05:44:03;16.70;;;3.67;;
54263;SDS011;40178;53.042;6.406;2023-01-30T05:46:29;20.83;;;3.70;;
54263;SDS011;40178;53.042;6.406;2023-01-30T05:48:55;18.52;;;3.17;;
54263;SDS011;40178;53.042;6.406;2023-01-30T05:51:22;17.20;;;4.50;;
54263;SDS011;40178;53.042;6.406;2023-01-30T05:53:49;20.75;;;3.22;;
54263;SDS011;40178;53.042;6.406;2023-01-30T05:56:15;13.45;;;2.90;;
54263;SDS011;40178;53.042;6.406;2023-01-30T05:58:42;19.63;;;4.18;;
54263;SDS011;40178;53.042;6.406;2023-01-30T06:01:10;21.48;;;3.78;;
54263;SDS011;40178;53.042;6.406;2023-01-30T06:03:37;12.75;;;2.83;;
54263;SDS011;40178;53.042;6.406;2023-01-30T06:06:03;18.98;;;2.83;;
54263;SDS011;40178;53.042;6.406;2023-01-30T06:08:30;18.33;;;2.78;;
54263;SDS011;40178;53.042;6.406;2023-01-30T06:11:03;15.65;;;3.10;;
54263;SDS011;40178;53.042;6.406;2023-01-30T06:13:30;17.00;;;3.50;;
54263;SDS011;40178;53.042;6.406;2023-01-30T06:15:55;15.07;;;2.72;;
54263;SDS011;40178;53.042;6.406;2023-01-30T06:18:21;19.45;;;3.13;;
54263;SDS011;40178;53.042;6.406;2023-01-30T06:20:48;19.48;;;3.35;;
54263;SDS011;40178;53.042;6.406;2023-01-30T06:23:14;9.48;;;2.53;;
54263;SDS011;40178;53.042;6.406;2023-01-30T06:25:43;15.38;;;3.20;;
54263;SDS011;40178;53.042;6.406;2023-01-30T06:28:10;19.45;;;2.90;;
54263;SDS011;40178;53.042;6.406;2023-01-30T06:30:35;19.25;;;3.15;;
54263;SDS011;40178;53.042;6.406;2023-01-30T06:33:01;14.90;;;3.25;;
54263;SDS011;40178;53.042;6.406;2023-01-30T06:35:27;15.43;;;2.67;;
54263;SDS011;40178;53.042;6.406;2023-01-30T06:37:52;13.93;;;3.00;;
54263;SDS011;40178;53.042;6.406;2023-01-30T06:40:18;15.38;;;3.67;;
54263;SDS011;40178;53.042;6.406;2023-01-30T06:42:44;12.45;;;2.17;;
54263;SDS011;40178;53.042;6.406;2023-01-30T06:45:13;18.60;;;2.25;;
54263;SDS011;40178;53.042;6.406;2023-01-30T06:47:47;13.73;;;2.42;;
54263;SDS011;40178;53.042;6.406;2023-01-30T06:50:14;12.98;;;2.20;;
54263;SDS011;40178;53.042;6.406;2023-01-30T06:52:42;17.63;;;2.38;;
54263;SDS011;40178;53.042;6.406;2023-01-30T06:55:09;15.63;;;2.30;;
54263;SDS011;40178;53.042;6.406;2023-01-30T06:57:36;13.18;;;2.95;;
54263;SDS011;40178;53.042;6.406;2023-01-30T07:00:06;13.65;;;2.35;;
54263;SDS011;40178;53.042;6.406;2023-01-30T07:02:33;15.90;;;2.85;;
54263;SDS011;40178;53.042;6.406;2023-01-30T07:05:00;10.85;;;2.83;;
54263;SDS011;40178;53.042;6.406;2023-01-30T07:07:27;12.88;;;2.08;;
54263;SDS011;40178;53.042;6.406;2023-01-30T07:09:53;12.65;;;2.75;;
54263;SDS011;40178;53.042;6.406;2023-01-30T07:12:19;11.50;;;3.15;;
54263;SDS011;40178;53.042;6.406;2023-01-30T07:14:44;9.68;;;2.03;;
54263;SDS011;40178;53.042;6.406;2023-01-30T07:17:10;17.38;;;2.25;;
54263;SDS011;40178;53.042;6.406;2023-01-30T07:19:36;13.10;;;2.05;;
54263;SDS011;40178;53.042;6.406;2023-01-30T07:22:03;11.77;;;2.25;;
54263;SDS011;40178;53.042;6.406;2023-01-30T07:24:29;14.50;;;2.55;;
54263;SDS011;40178;53.042;6.406;2023-01-30T07:26:55;14.18;;;3.55;;
54263;SDS011;40178;53.042;6.406;2023-01-30T07:29:20;14.55;;;2.72;;
54263;SDS011;40178;53.042;6.406;2023-01-30T07:31:46;21.70;;;3.50;;
54263;SDS011;40178;53.042;6.406;2023-01-30T07:34:11;15.65;;;2.72;;
54263;SDS011;40178;53.042;6.406;2023-01-30T07:36:37;15.82;;;2.20;;
54263;SDS011;40178;53.042;6.406;2023-01-30T07:39:03;13.98;;;2.63;;
54263;SDS011;40178;53.042;6.406;2023-01-30T07:41:29;14.77;;;2.75;;
54263;SDS011;40178;53.042;6.406;2023-01-30T07:43:55;18.70;;;2.85;;
54263;SDS011;40178;53.042;6.406;2023-01-30T07:46:21;13.18;;;2.20;;
54263;SDS011;40178;53.042;6.406;2023-01-30T07:48:47;19.10;;;2.63;;
54263;SDS011;40178;53.042;6.406;2023-01-30T07:51:12;11.50;;;1.92;;
54263;SDS011;40178;53.042;6.406;2023-01-30T07:53:38;15.52;;;2.28;;
54263;SDS011;40178;53.042;6.406;2023-01-30T07:56:10;12.10;;;2.97;;
54263;SDS011;40178;53.042;6.406;2023-01-30T07:58:42;11.55;;;2.90;;
54263;SDS011;40178;53.042;6.406;2023-01-30T08:01:07;10.02;;;2.30;;
54263;SDS011;40178;53.042;6.406;2023-01-30T08:03:33;12.93;;;2.63;;
54263;SDS011;40178;53.042;6.406;2023-01-30T08:05:59;19.65;;;2.85;;
54263;SDS011;40178;53.042;6.406;2023-01-30T08:08:24;9.73;;;2.15;;
54263;SDS011;40178;53.042;6.406;2023-01-30T08:10:50;19.13;;;3.20;;
54263;SDS011;40178;53.042;6.406;2023-01-30T08:13:15;15.48;;;2.10;;
54263;SDS011;40178;53.042;6.406;2023-01-30T08:15:41;12.20;;;2.33;;
54263;SDS011;40178;53.042;6.406;2023-01-30T08:18:07;14.38;;;2.53;;
54263;SDS011;40178;53.042;6.406;2023-01-30T08:20:33;22.95;;;2.97;;
54263;SDS011;40178;53.042;6.406;2023-01-30T08:22:58;13.80;;;3.17;;
54263;SDS011;40178;53.042;6.406;2023-01-30T08:25:26;18.20;;;2.45;;
54263;SDS011;40178;53.042;6.406;2023-01-30T08:27:52;13.98;;;2.80;;
54263;SDS011;40178;53.042;6.406;2023-01-30T08:30:19;13.02;;;3.33;;
54263;SDS011;40178;53.042;6.406;2023-01-30T08:32:46;13.25;;;2.00;;
54263;SDS011;40178;53.042;6.406;2023-01-30T08:35:12;16.35;;;3.30;;
54263;SDS011;40178;53.042;6.406;2023-01-30T08:37:38;22.27;;;3.33;;
54263;SDS011;40178;53.042;6.406;2023-01-30T08:40:05;16.48;;;2.47;;
54263;SDS011;40178;53.042;6.406;2023-01-30T08:42:32;15.18;;;2.80;;
54263;SDS011;40178;53.042;6.406;2023-01-30T08:44:57;13.85;;;3.38;;
54263;SDS011;40178;53.042;6.406;2023-01-30T08:47:23;16.55;;;2.65;;
54263;SDS011;40178;53.042;6.406;2023-01-30T08:49:49;11.90;;;2.40;;
54263;SDS011;40178;53.042;6.406;2023-01-30T08:52:18;14.40;;;2.20;;
54263;SDS011;40178;53.042;6.406;2023-01-30T08:54:45;16.90;;;2.85;;
54263;SDS011;40178;53.042;6.406;2023-01-30T08:57:12;13.32;;;2.58;;
54263;SDS011;40178;53.042;6.406;2023-01-30T08:59:38;15.38;;;2.97;;
54263;SDS011;40178;53.042;6.406;2023-01-30T09:02:04;16.35;;;2.65;;
54263;SDS011;40178;53.042;6.406;2023-01-30T09:04:30;13.88;;;3.10;;
54263;SDS011;40178;53.042;6.406;2023-01-30T09:06:56;13.68;;;1.75;;
54263;SDS011;40178;53.042;6.406;2023-01-30T09:09:22;13.48;;;2.65;;
54263;SDS011;40178;53.042;6.406;2023-01-30T09:11:48;17.83;;;2.70;;
54263;SDS011;40178;53.042;6.406;2023-01-30T09:14:14;17.25;;;2.35;;
54263;SDS011;40178;53.042;6.406;2023-01-30T09:16:47;12.68;;;2.40;;
54263;SDS011;40178;53.042;6.406;2023-01-30T09:19:19;16.95;;;3.33;;
54263;SDS011;40178;53.042;6.406;2023-01-30T09:21:49;15.35;;;3.22;;
54263;SDS011;40178;53.042;6.406;2023-01-30T09:24:16;17.35;;;2.28;;
54263;SDS011;40178;53.042;6.406;2023-01-30T09:26:42;14.82;;;2.50;;
54263;SDS011;40178;53.042;6.406;2023-01-30T09:29:11;16.67;;;3.03;;
54263;SDS011;40178;53.042;6.406;2023-01-30T09:31:37;15.10;;;3.03;;
54263;SDS011;40178;53.042;6.406;2023-01-30T09:34:03;18.98;;;3.20;;
54263;SDS011;40178;53.042;6.406;2023-01-30T09:36:29;19.33;;;2.55;;
54263;SDS011;40178;53.042;6.406;2023-01-30T09:38:55;17.42;;;3.42;;
54263;SDS011;40178;53.042;6.406;2023-01-30T09:41:33;21.02;;;3.40;;
54263;SDS011;40178;53.042;6.406;2023-01-30T09:47:17;15.98;;;3.63;;
54263;SDS011;40178;53.042;6.406;2023-01-30T09:57:57;17.23;;;3.40;;
54263;SDS011;40178;53.042;6.406;2023-01-30T10:00:33;18.35;;;3.80;;
54263;SDS011;40178;53.042;6.406;2023-01-30T10:06:15;19.38;;;3.10;;
54263;SDS011;40178;53.042;6.406;2023-01-30T10:16:50;22.58;;;3.65;;
54263;SDS011;40178;53.042;6.406;2023-01-30T10:27:16;13.02;;;2.75;;
54263;SDS011;40178;53.042;6.406;2023-01-30T10:29:44;17.52;;;3.00;;
54263;SDS011;40178;53.042;6.406;2023-01-30T10:32:19;17.85;;;3.13;;
54263;SDS011;40178;53.042;6.406;2023-01-30T10:34:47;17.23;;;3.83;;
54263;SDS011;40178;53.042;6.406;2023-01-30T10:37:21;13.02;;;3.05;;
54263;SDS011;40178;53.042;6.406;2023-01-30T10:39:57;17.48;;;2.78;;
54263;SDS011;40178;53.042;6.406;2023-01-30T10:45:43;11.55;;;2.35;;
54263;SDS011;40178;53.042;6.406;2023-01-30T10:48:30;12.02;;;2.08;;
54263;SDS011;40178;53.042;6.406;2023-01-30T10:51:04;12.48;;;2.40;;
54263;SDS011;40178;53.042;6.406;2023-01-30T10:54:08;9.25;;;1.33;;
54263;SDS011;40178;53.042;6.406;2023-01-30T10:56:59;11.85;;;1.50;;
54263;SDS011;40178;53.042;6.406;2023-01-30T10:59:49;7.20;;;1.17;;
54263;SDS011;40178;53.042;6.406;2023-01-30T11:05:14;9.38;;;2.00;;
54263;SDS011;40178;53.042;6.406;2023-01-30T11:07:44;13.55;;;1.80;;
54263;SDS011;40178;53.042;6.406;2023-01-30T11:10:21;14.27;;;2.22;;
54263;SDS011;40178;53.042;6.406;2023-01-30T11:12:54;7.55;;;1.30;;
54263;SDS011;40178;53.042;6.406;2023-01-30T11:15:37;12.48;;;2.28;;
54263;SDS011;40178;53.042;6.406;2023-01-30T11:18:07;10.18;;;2.38;;
54263;SDS011;40178;53.042;6.406;2023-01-30T11:20:37;12.00;;;2.22;;
54263;SDS011;40178;53.042;6.406;2023-01-30T11:25:51;8.85;;;1.48;;
54263;SDS011;40178;53.042;6.406;2023-01-30T11:28:20;7.32;;;1.20;;
54263;SDS011;40178;53.042;6.406;2023-01-30T11:30:52;13.50;;;1.48;;
54263;SDS011;40178;53.042;6.406;2023-01-30T11:33:33;10.48;;;2.42;;
54263;SDS011;40178;53.042;6.406;2023-01-30T11:36:02;10.25;;;1.65;;
54263;SDS011;40178;53.042;6.406;2023-01-30T11:38:30;12.00;;;1.83;;
54263;SDS011;40178;53.042;6.406;2023-01-30T11:41:09;9.55;;;1.58;;
54263;SDS011;40178;53.042;6.406;2023-01-30T11:43:42;9.77;;;1.23;;
54263;SDS011;40178;53.042;6.406;2023-01-30T11:46:08;10.68;;;1.35;;
54263;SDS011;40178;53.042;6.406;2023-01-30T11:48:51;6.45;;;0.82;;
54263;SDS011;40178;53.042;6.406;2023-01-30T11:51:19;6.00;;;0.88;;
54263;SDS011;40178;53.042;6.406;2023-01-30T11:53:55;8.13;;;0.93;;
54263;SDS011;40178;53.042;6.406;2023-01-30T11:56:31;7.00;;;1.17;;
54263;SDS011;40178;53.042;6.406;2023-01-30T11:59:29;10.38;;;1.33;;
54263;SDS011;40178;53.042;6.406;2023-01-30T12:07:52;7.70;;;1.13;;
54263;SDS011;40178;53.042;6.406;2023-01-30T12:10:44;8.02;;;1.05;;
54263;SDS011;40178;53.042;6.406;2023-01-30T12:13:27;4.97;;;1.02;;
54263;SDS011;40178;53.042;6.406;2023-01-30T12:18:52;7.43;;;1.10;;
54263;SDS011;40178;53.042;6.406;2023-01-30T12:32:33;13.73;;;1.98;;
54263;SDS011;40178;53.042;6.406;2023-01-30T12:35:00;12.07;;;1.55;;
54263;SDS011;40178;53.042;6.406;2023-01-30T12:37:30;13.30;;;1.60;;
54263;SDS011;40178;53.042;6.406;2023-01-30T12:46:03;11.80;;;1.90;;
54263;SDS011;40178;53.042;6.406;2023-01-30T12:49:21;7.97;;;1.42;;
54263;SDS011;40178;53.042;6.406;2023-01-30T12:57:43;10.02;;;1.83;;
54263;SDS011;40178;53.042;6.406;2023-01-30T13:00:32;11.80;;;1.50;;
54263;SDS011;40178;53.042;6.406;2023-01-30T13:06:21;12.15;;;2.00;;
54263;SDS011;40178;53.042;6.406;2023-01-30T13:19:37;9.43;;;1.80;;
54263;SDS011;40178;53.042;6.406;2023-01-30T13:27:39;10.15;;;2.55;;
54263;SDS011;40178;53.042;6.406;2023-01-30T13:30:12;12.80;;;2.70;;
54263;SDS011;40178;53.042;6.406;2023-01-30T13:33:00;9.23;;;1.83;;
54263;SDS011;40178;53.042;6.406;2023-01-30T13:35:40;14.45;;;2.10;;
54263;SDS011;40178;53.042;6.406;2023-01-30T13:38:16;13.38;;;2.35;;
54263;SDS011;40178;53.042;6.406;2023-01-30T13:40:48;21.05;;;3.35;;
54263;SDS011;40178;53.042;6.406;2023-01-30T13:43:27;18.70;;;3.55;;
54263;SDS011;40178;53.042;6.406;2023-01-30T13:45:59;18.13;;;3.17;;
54263;SDS011;40178;53.042;6.406;2023-01-30T13:56:51;19.00;;;2.88;;
54263;SDS011;40178;53.042;6.406;2023-01-30T14:02:19;19.98;;;2.75;;
54263;SDS011;40178;53.042;6.406;2023-01-30T14:04:47;16.58;;;2.67;;
54263;SDS011;40178;53.042;6.406;2023-01-30T14:07:15;14.93;;;3.10;;
54263;SDS011;40178;53.042;6.406;2023-01-30T14:12:44;15.23;;;2.75;;
54263;SDS011;40178;53.042;6.406;2023-01-30T14:15:19;15.52;;;2.47;;
54263;SDS011;40178;53.042;6.406;2023-01-30T14:25:49;15.65;;;2.97;;
54263;SDS011;40178;53.042;6.406;2023-01-30T14:30:51;10.05;;;2.40;;
54263;SDS011;40178;53.042;6.406;2023-01-30T14:38:28;14.57;;;3.72;;
54263;SDS011;40178;53.042;6.406;2023-01-30T14:43:31;16.23;;;4.05;;
54263;SDS011;40178;53.042;6.406;2023-01-30T14:56:40;17.10;;;2.50;;
54263;SDS011;40178;53.042;6.406;2023-01-30T15:02:00;19.98;;;3.45;;
54263;SDS011;40178;53.042;6.406;2023-01-30T15:04:43;20.15;;;3.28;;
54263;SDS011;40178;53.042;6.406;2023-01-30T15:07:18;25.63;;;3.38;;
54263;SDS011;40178;53.042;6.406;2023-01-30T15:10:22;22.13;;;3.90;;
54263;SDS011;40178;53.042;6.406;2023-01-30T15:15:36;16.67;;;2.67;;
54263;SDS011;40178;53.042;6.406;2023-01-30T15:26:14;16.08;;;3.22;;
54263;SDS011;40178;53.042;6.406;2023-01-30T15:31:55;13.05;;;2.72;;
54263;SDS011;40178;53.042;6.406;2023-01-30T15:34:26;15.20;;;3.22;;
54263;SDS011;40178;53.042;6.406;2023-01-30T15:36:55;17.20;;;3.70;;
54263;SDS011;40178;53.042;6.406;2023-01-30T15:39:23;11.63;;;2.80;;
54263;SDS011;40178;53.042;6.406;2023-01-30T15:41:50;21.85;;;3.17;;
54263;SDS011;40178;53.042;6.406;2023-01-30T15:52:01;17.55;;;3.17;;
54263;SDS011;40178;53.042;6.406;2023-01-30T15:54:28;15.52;;;2.63;;
54263;SDS011;40178;53.042;6.406;2023-01-30T15:56:54;17.15;;;2.55;;
54263;SDS011;40178;53.042;6.406;2023-01-30T15:59:27;16.20;;;3.25;;
54263;SDS011;40178;53.042;6.406;2023-01-30T16:04:32;11.55;;;2.47;;
54263;SDS011;40178;53.042;6.406;2023-01-30T16:06:58;16.35;;;2.63;;
54263;SDS011;40178;53.042;6.406;2023-01-30T16:09:24;19.02;;;3.33;;
54263;SDS011;40178;53.042;6.406;2023-01-30T16:11:50;15.52;;;2.80;;
54263;SDS011;40178;53.042;6.406;2023-01-30T16:14:20;16.23;;;3.90;;
54263;SDS011;40178;53.042;6.406;2023-01-30T16:16:51;18.95;;;3.83;;
54263;SDS011;40178;53.042;6.406;2023-01-30T16:19:33;18.80;;;3.67;;
54263;SDS011;40178;53.042;6.406;2023-01-30T16:22:09;13.77;;;2.70;;
54263;SDS011;40178;53.042;6.406;2023-01-30T16:24:45;14.63;;;3.28;;
54263;SDS011;40178;53.042;6.406;2023-01-30T16:27:23;19.60;;;3.10;;
54263;SDS011;40178;53.042;6.406;2023-01-30T16:29:51;16.42;;;3.83;;
54263;SDS011;40178;53.042;6.406;2023-01-30T16:32:27;14.95;;;3.30;;
54263;SDS011;40178;53.042;6.406;2023-01-30T16:37:41;19.10;;;3.97;;
54263;SDS011;40178;53.042;6.406;2023-01-30T16:42:35;22.67;;;4.72;;
54263;SDS011;40178;53.042;6.406;2023-01-30T16:47:43;16.45;;;3.38;;
54263;SDS011;40178;53.042;6.406;2023-01-30T16:50:21;17.45;;;2.90;;
54263;SDS011;40178;53.042;6.406;2023-01-30T16:52:50;18.80;;;3.25;;
54263;SDS011;40178;53.042;6.406;2023-01-30T16:55:19;21.27;;;4.32;;
54263;SDS011;40178;53.042;6.406;2023-01-30T17:00:19;19.70;;;3.85;;
54263;SDS011;40178;53.042;6.406;2023-01-30T17:02:53;15.50;;;3.13;;
54263;SDS011;40178;53.042;6.406;2023-01-30T17:05:22;22.10;;;4.20;;
54263;SDS011;40178;53.042;6.406;2023-01-30T17:08:00;19.23;;;3.35;;
54263;SDS011;40178;53.042;6.406;2023-01-30T17:12:52;14.32;;;3.28;;
54263;SDS011;40178;53.042;6.406;2023-01-30T17:17:44;21.88;;;4.35;;
54263;SDS011;40178;53.042;6.406;2023-01-30T17:20:10;14.10;;;3.17;;
54263;SDS011;40178;53.042;6.406;2023-01-30T17:22:40;23.27;;;3.63;;
54263;SDS011;40178;53.042;6.406;2023-01-30T17:28:19;18.83;;;2.90;;
54263;SDS011;40178;53.042;6.406;2023-01-30T17:30:48;24.92;;;3.88;;
54263;SDS011;40178;53.042;6.406;2023-01-30T17:33:14;21.98;;;3.22;;
54263;SDS011;40178;53.042;6.406;2023-01-30T17:35:39;19.65;;;4.03;;
54263;SDS011;40178;53.042;6.406;2023-01-30T17:38:05;24.80;;;4.57;;
54263;SDS011;40178;53.042;6.406;2023-01-30T17:40:35;21.25;;;3.50;;
54263;SDS011;40178;53.042;6.406;2023-01-30T17:43:01;15.93;;;2.60;;
54263;SDS011;40178;53.042;6.406;2023-01-30T17:45:28;21.40;;;3.30;;
54263;SDS011;40178;53.042;6.406;2023-01-30T17:47:54;20.33;;;3.30;;
54263;SDS011;40178;53.042;6.406;2023-01-30T17:50:19;16.90;;;3.15;;
54263;SDS011;40178;53.042;6.406;2023-01-30T17:52:45;21.38;;;3.42;;
54263;SDS011;40178;53.042;6.406;2023-01-30T17:55:11;12.48;;;2.92;;
54263;SDS011;40178;53.042;6.406;2023-01-30T17:57:37;18.02;;;3.85;;
54263;SDS011;40178;53.042;6.406;2023-01-30T18:00:05;16.85;;;3.47;;
54263;SDS011;40178;53.042;6.406;2023-01-30T18:02:31;21.40;;;3.95;;
54263;SDS011;40178;53.042;6.406;2023-01-30T18:04:57;19.60;;;3.25;;
54263;SDS011;40178;53.042;6.406;2023-01-30T18:07:22;16.15;;;3.35;;
54263;SDS011;40178;53.042;6.406;2023-01-30T18:09:52;18.00;;;4.25;;
54263;SDS011;40178;53.042;6.406;2023-01-30T18:12:17;15.30;;;3.38;;
54263;SDS011;40178;53.042;6.406;2023-01-30T18:14:43;14.75;;;2.88;;
54263;SDS011;40178;53.042;6.406;2023-01-30T18:17:09;23.40;;;4.38;;
54263;SDS011;40178;53.042;6.406;2023-01-30T18:19:35;18.50;;;3.33;;